Time;durP1;ratioP1;P1;durP2;ratioP2;P2;SDS_P1;SDS_P2;PMS_P1;PMS_P2;Temp;Humidity;BMP_temperature;BMP_pressure;BME280_temperature;BME280_humidity;BME280_pressure;Samples;Min_cycle;Max_cycle;Signal;HPM_P1;HPM_P2
2022/08/14 00:01:58;;;;;;;4.40;1.83;;;;;;;;;;5028945;28;87109;-49
2022/08/14 00:04:30;;;;;;;3.93;1.73;;;;;;;;;;5032999;28;87547;-49
2022/08/14 00:07:03;;;;;;;2.50;1.70;;;;;;;;;;5031162;28;88162;-50
2022/08/14 00:09:34;;;;;;;1.97;1.53;;;;;;;;;;5031014;28;88761;-50
2022/08/14 00:12:07;;;;;;;2.03;1.37;;;;;;;;;;5030317;28;87011;-49
2022/08/14 00:14:51;;;;;;;2.40;1.10;;;;;;;;;;5022782;28;87179;-50
2022/08/14 00:17:22;;;;;;;4.47;1.63;;;;;;;;;;5024182;28;90235;-49
2022/08/14 00:19:52;;;;;;;2.93;1.33;;;;;;;;;;5040605;28;88886;-49
2022/08/14 00:22:21;;;;;;;1.80;1.40;;;;;;;;;;5031598;28;87021;-49
2022/08/14 00:25:09;;;;;;;1.30;1.20;;;;;;;;;;5021428;28;87037;-49
2022/08/14 00:27:38;;;;;;;1.10;1.00;;;;;;;;;;5020066;28;88153;-50
2022/08/14 00:30:07;;;;;;;2.27;1.50;;;;;;;;;;5020705;28;87866;-49
2022/08/14 00:32:38;;;;;;;1.60;1.13;;;;;;;;;;5020281;28;86908;-49
2022/08/14 00:35:24;;;;;;;2.30;1.17;;;;;;;;;;5031222;28;86352;-49
2022/08/14 00:38:13;;;;;;;1.30;1.17;;;;;;;;;;5039782;28;87731;-50
2022/08/14 00:40:42;;;;;;;1.20;1.10;;;;;;;;;;5040169;28;87738;-50
2022/08/14 00:43:14;;;;;;;1.33;1.23;;;;;;;;;;5040124;28;88188;-50
2022/08/14 00:45:42;;;;;;;1.57;1.10;;;;;;;;;;5040658;28;87197;-50
2022/08/14 00:48:19;;;;;;;2.00;1.33;;;;;;;;;;5040554;28;87999;-50
2022/08/14 00:51:05;;;;;;;2.37;1.47;;;;;;;;;;5040991;28;89009;-50
2022/08/14 00:53:35;;;;;;;1.23;1.13;;;;;;;;;;5040781;28;87878;-50
2022/08/14 00:56:03;;;;;;;1.33;1.23;;;;;;;;;;5040499;28;88739;-50
2022/08/14 00:58:35;;;;;;;1.80;1.40;;;;;;;;;;5035008;28;88194;-50
2022/08/14 01:01:17;;;;;;;0.93;0.90;;;;;;;;;;5035530;27;88483;-49
2022/08/14 01:03:46;;;;;;;2.70;1.10;;;;;;;;;;5037854;28;89181;-50
2022/08/14 01:06:22;;;;;;;2.93;1.17;;;;;;;;;;5037469;28;88852;-50
2022/08/14 01:08:57;;;;;;;2.50;1.20;;;;;;;;;;5036371;28;89059;-49
2022/08/14 01:11:27;;;;;;;1.60;1.10;;;;;;;;;;5037333;28;88731;-49
2022/08/14 01:14:03;;;;;;;1.50;1.40;;;;;;;;;;5036261;28;88905;-49
2022/08/14 01:16:51;;;;;;;1.73;1.20;;;;;;;;;;5038447;28;88710;-49
2022/08/14 01:22:11;;;;;;;1.43;1.10;;;;;;;;;;5039023;28;89120;-49
2022/08/14 01:24:40;;;;;;;1.03;1.00;;;;;;;;;;5044074;28;87182;-50
2022/08/14 01:27:16;;;;;;;1.63;1.20;;;;;;;;;;5043299;28;86324;-49
2022/08/14 01:29:45;;;;;;;1.40;1.13;;;;;;;;;;5043194;28;88088;-50
2022/08/14 01:32:30;;;;;;;2.47;1.20;;;;;;;;;;5042276;28;87917;-49
2022/08/14 01:35:07;;;;;;;1.40;1.30;;;;;;;;;;5042550;28;89585;-49
2022/08/14 01:37:57;;;;;;;1.13;1.10;;;;;;;;;;5042700;28;87081;-49
2022/08/14 01:40:25;;;;;;;3.40;1.10;;;;;;;;;;5043162;28;87925;-49
2022/08/14 01:43:13;;;;;;;1.20;1.10;;;;;;;;;;5042719;28;88874;-49
2022/08/14 01:45:41;;;;;;;1.10;1.00;;;;;;;;;;5043403;28;87238;-50
2022/08/14 01:48:16;;;;;;;1.27;1.17;;;;;;;;;;5043057;28;87026;-49
2022/08/14 01:50:48;;;;;;;1.70;1.30;;;;;;;;;;5042497;28;89062;-49
2022/08/14 01:53:19;;;;;;;1.60;1.50;;;;;;;;;;5042967;28;87628;-50
2022/08/14 01:55:50;;;;;;;1.97;1.20;;;;;;;;;;5043333;28;87007;-49
2022/08/14 01:58:18;;;;;;;1.03;1.00;;;;;;;;;;5042947;28;87108;-50
2022/08/14 02:00:57;;;;;;;1.57;1.47;;;;;;;;;;5042531;28;89035;-49
2022/08/14 02:03:27;;;;;;;1.73;1.20;;;;;;;;;;5042699;28;89720;-49
2022/08/14 02:05:58;;;;;;;2.67;1.50;;;;;;;;;;5022873;28;87034;-50
2022/08/14 02:08:48;;;;;;;1.50;1.40;;;;;;;;;;5031735;28;87057;-50
2022/08/14 02:11:24;;;;;;;1.70;1.40;;;;;;;;;;5041474;27;87038;-50
2022/08/14 02:13:57;;;;;;;1.27;1.17;;;;;;;;;;5040796;28;87943;-50
2022/08/14 02:16:26;;;;;;;1.53;1.30;;;;;;;;;;5042664;28;87041;-49
2022/08/14 02:18:55;;;;;;;3.73;1.40;;;;;;;;;;5043053;28;86248;-50
2022/08/14 02:21:26;;;;;;;2.50;1.30;;;;;;;;;;5043079;28;88004;-50
2022/08/14 02:23:56;;;;;;;1.30;1.10;;;;;;;;;;5042666;28;86945;-50
2022/08/14 02:26:25;;;;;;;2.37;1.73;;;;;;;;;;5041295;28;87966;-50
2022/08/14 02:28:59;;;;;;;1.50;1.37;;;;;;;;;;5042489;28;87049;-49
2022/08/14 02:31:31;;;;;;;2.43;1.13;;;;;;;;;;5042407;28;88153;-49
2022/08/14 02:34:13;;;;;;;1.53;1.07;;;;;;;;;;5041744;28;87751;-50
2022/08/14 02:36:54;;;;;;;1.87;1.23;;;;;;;;;;5035848;28;87033;-50
2022/08/14 02:39:35;;;;;;;2.87;1.50;;;;;;;;;;5036390;28;87009;-50
2022/08/14 02:42:05;;;;;;;1.70;1.40;;;;;;;;;;5034593;28;89078;-49
2022/08/14 02:44:40;;;;;;;3.43;1.70;;;;;;;;;;5030759;28;87769;-50
2022/08/14 02:47:10;;;;;;;1.60;1.37;;;;;;;;;;5041996;28;86985;-50
2022/08/14 02:49:46;;;;;;;1.50;1.40;;;;;;;;;;5036573;28;86883;-50
2022/08/14 02:52:21;;;;;;;2.43;1.40;;;;;;;;;;5033389;28;89004;-50
2022/08/14 02:55:11;;;;;;;2.37;1.80;;;;;;;;;;5040277;28;87254;-50
2022/08/14 02:57:50;;;;;;;1.57;1.47;;;;;;;;;;5036301;28;88609;-50
2022/08/14 03:00:25;;;;;;;1.70;1.60;;;;;;;;;;5035600;28;87459;-49
2022/08/14 03:02:54;;;;;;;1.70;1.60;;;;;;;;;;5036528;28;88922;-50
2022/08/14 03:05:29;;;;;;;2.10;1.57;;;;;;;;;;5034990;28;88604;-49
2022/08/14 03:08:07;;;;;;;1.50;1.40;;;;;;;;;;5035035;28;87212;-50
2022/08/14 03:10:37;;;;;;;3.83;1.63;;;;;;;;;;5037554;28;86318;-49
2022/08/14 03:13:09;;;;;;;1.97;1.77;;;;;;;;;;5042331;28;88280;-50
2022/08/14 03:15:49;;;;;;;2.30;1.43;;;;;;;;;;5041583;28;87696;-49
2022/08/14 03:18:24;;;;;;;2.97;2.10;;;;;;;;;;5041867;28;88449;-49
2022/08/14 03:20:59;;;;;;;2.20;2.00;;;;;;;;;;5041492;28;87017;-49
2022/08/14 03:23:32;;;;;;;1.93;1.50;;;;;;;;;;5040836;27;88442;-50
2022/08/14 03:26:05;;;;;;;1.97;1.60;;;;;;;;;;5041651;28;87736;-50
2022/08/14 03:28:34;;;;;;;2.63;1.80;;;;;;;;;;5041897;28;86805;-49
2022/08/14 03:31:06;;;;;;;5.50;2.20;;;;;;;;;;5041035;28;87085;-49
2022/08/14 03:33:36;;;;;;;3.90;1.73;;;;;;;;;;5040981;28;88282;-50
2022/08/14 03:36:12;;;;;;;2.17;1.97;;;;;;;;;;5041581;28;89093;-49
2022/08/14 03:39:00;;;;;;;2.03;1.60;;;;;;;;;;5041351;28;86969;-49
2022/08/14 03:41:46;;;;;;;3.60;1.60;;;;;;;;;;5041200;28;86964;-49
2022/08/14 03:44:16;;;;;;;2.40;1.70;;;;;;;;;;5041104;28;88277;-50
2022/08/14 03:47:05;;;;;;;2.57;1.60;;;;;;;;;;5040774;28;88311;-49
2022/08/14 03:49:35;;;;;;;1.57;1.43;;;;;;;;;;5041651;28;87002;-50
2022/08/14 03:52:09;;;;;;;1.50;1.40;;;;;;;;;;5041037;28;87052;-49
2022/08/14 03:54:58;;;;;;;2.40;1.40;;;;;;;;;;5041332;28;87778;-49
2022/08/14 03:57:31;;;;;;;1.60;1.50;;;;;;;;;;5041769;28;87920;-50
2022/08/14 04:00:01;;;;;;;1.60;1.50;;;;;;;;;;5041280;28;87098;-50
2022/08/14 04:02:30;;;;;;;1.87;1.70;;;;;;;;;;5042099;28;86208;-50
2022/08/14 04:05:04;;;;;;;1.70;1.60;;;;;;;;;;5041046;28;89101;-50
2022/08/14 04:07:40;;;;;;;2.07;1.70;;;;;;;;;;5041270;28;87702;-49
2022/08/14 04:10:28;;;;;;;2.63;1.77;;;;;;;;;;5040147;28;87828;-49
2022/08/14 04:13:01;;;;;;;3.17;1.93;;;;;;;;;;5041061;28;87024;-49
2022/08/14 04:15:31;;;;;;;1.40;1.30;;;;;;;;;;5039423;28;88275;-50
2022/08/14 04:18:19;;;;;;;1.60;1.30;;;;;;;;;;5040084;28;87354;-50
2022/08/14 04:20:48;;;;;;;1.40;1.27;;;;;;;;;;5035657;28;87042;-50
2022/08/14 04:23:22;;;;;;;1.90;1.47;;;;;;;;;;5040499;28;87023;-49
2022/08/14 04:26:01;;;;;;;2.13;1.40;;;;;;;;;;5038730;28;86719;-49
2022/08/14 04:28:31;;;;;;;2.20;1.43;;;;;;;;;;5040087;28;87803;-50
2022/08/14 04:31:19;;;;;;;2.73;1.67;;;;;;;;;;5040003;28;86998;-50
2022/08/14 04:34:08;;;;;;;2.53;1.50;;;;;;;;;;5031769;28;86940;-50
2022/08/14 04:45:01;;;;;;;1.77;1.43;;;;;;;;;;5044498;28;86876;-49
2022/08/14 04:50:21;;;;;;;2.77;1.47;;;;;;;;;;5044164;28;86934;-49
2022/08/14 04:53:01;;;;;;;3.97;1.50;;;;;;;;;;5044486;28;86922;-49
2022/08/14 04:55:29;;;;;;;2.03;1.40;;;;;;;;;;5043992;28;86285;-49
2022/08/14 04:57:58;;;;;;;1.30;1.17;;;;;;;;;;5044308;28;87973;-50
2022/08/14 05:00:27;;;;;;;2.37;1.63;;;;;;;;;;5044238;28;87912;-50
2022/08/14 05:02:57;;;;;;;2.00;1.50;;;;;;;;;;5043948;28;88006;-50
2022/08/14 05:05:25;;;;;;;2.73;1.50;;;;;;;;;;5044594;28;86954;-50
2022/08/14 05:08:08;;;;;;;2.90;1.60;;;;;;;;;;5043870;28;87011;-50
2022/08/14 05:10:37;;;;;;;1.73;1.60;;;;;;;;;;5043540;28;88838;-49
2022/08/14 05:13:12;;;;;;;1.97;1.73;;;;;;;;;;5044152;28;87140;-49
2022/08/14 05:15:45;;;;;;;3.27;2.00;;;;;;;;;;5043832;28;86976;-50
2022/08/14 05:18:15;;;;;;;1.80;1.70;;;;;;;;;;5044219;28;88066;-49
2022/08/14 05:21:04;;;;;;;2.77;2.20;;;;;;;;;;5043997;28;87375;-50
2022/08/14 05:23:53;;;;;;;1.97;1.80;;;;;;;;;;5043761;28;86923;-50
2022/08/14 05:26:22;;;;;;;4.00;2.67;;;;;;;;;;5043826;28;86926;-50
2022/08/14 05:28:50;;;;;;;5.77;3.13;;;;;;;;;;5042738;28;89033;-50
2022/08/14 05:31:20;;;;;;;6.67;3.67;;;;;;;;;;5042962;28;88558;-50
2022/08/14 05:33:49;;;;;;;5.37;2.80;;;;;;;;;;5043641;28;86894;-50
2022/08/14 05:36:24;;;;;;;6.57;3.50;;;;;;;;;;5043792;28;87005;-50
2022/08/14 05:38:54;;;;;;;7.60;3.40;;;;;;;;;;5043868;28;88254;-50
2022/08/14 05:41:22;;;;;;;5.47;3.67;;;;;;;;;;5043572;28;89303;-50
2022/08/14 05:44:10;;;;;;;6.47;3.27;;;;;;;;;;5038569;27;86976;-49
2022/08/14 05:46:40;;;;;;;4.53;2.63;;;;;;;;;;5062705;27;86242;-49
2022/08/14 05:49:09;;;;;;;3.97;2.57;;;;;;;;;;5055246;27;88071;-50
2022/08/14 05:51:40;;;;;;;4.80;2.70;;;;;;;;;;5043372;28;87902;-50
2022/08/14 05:54:08;;;;;;;3.80;2.37;;;;;;;;;;5043059;28;87969;-50
2022/08/14 05:56:54;;;;;;;3.30;2.53;;;;;;;;;;5043386;28;88298;-50
2022/08/14 05:59:22;;;;;;;4.07;2.50;;;;;;;;;;5043077;28;88289;-50
2022/08/14 06:02:07;;;;;;;3.27;2.53;;;;;;;;;;5042763;28;87921;-50
2022/08/14 06:04:37;;;;;;;3.40;2.30;;;;;;;;;;5042802;28;87047;-49
2022/08/14 06:07:06;;;;;;;5.87;2.40;;;;;;;;;;5043278;28;86951;-50
2022/08/14 06:09:36;;;;;;;4.83;2.40;;;;;;;;;;5043518;28;88085;-49
2022/08/14 06:12:08;;;;;;;2.20;2.00;;;;;;;;;;5042617;28;87758;-49
2022/08/14 06:14:36;;;;;;;3.93;2.07;;;;;;;;;;5043633;28;86978;-49
2022/08/14 06:17:07;;;;;;;3.07;2.00;;;;;;;;;;5042699;28;86952;-50
2022/08/14 06:19:35;;;;;;;4.37;1.77;;;;;;;;;;5042043;28;88805;-49
2022/08/14 06:22:04;;;;;;;3.27;2.20;;;;;;;;;;5043073;28;89816;-49
2022/08/14 06:24:32;;;;;;;7.53;2.10;;;;;;;;;;5042403;28;86830;-50
2022/08/14 06:27:03;;;;;;;2.60;1.87;;;;;;;;;;5042651;28;87051;-50
2022/08/14 06:29:37;;;;;;;2.40;1.83;;;;;;;;;;5042606;28;89648;-50
2022/08/14 06:32:08;;;;;;;2.77;2.23;;;;;;;;;;5047612;27;87871;-49
2022/08/14 06:34:57;;;;;;;2.60;2.40;;;;;;;;;;5059004;27;87024;-49
2022/08/14 06:37:41;;;;;;;2.30;1.60;;;;;;;;;;5063119;27;86821;-49
2022/08/14 06:40:11;;;;;;;2.40;1.80;;;;;;;;;;5062787;27;88201;-49
2022/08/14 06:42:53;;;;;;;2.23;2.03;;;;;;;;;;5046304;27;87677;-50
2022/08/14 06:45:22;;;;;;;2.57;1.97;;;;;;;;;;5039686;28;87962;-50
2022/08/14 06:47:55;;;;;;;2.53;1.77;;;;;;;;;;5041751;28;86973;-50
2022/08/14 06:50:26;;;;;;;2.67;2.30;;;;;;;;;;5040732;28;87920;-50
2022/08/14 06:52:57;;;;;;;1.60;1.50;;;;;;;;;;5041143;28;88810;-49
2022/08/14 06:55:26;;;;;;;2.90;1.60;;;;;;;;;;5041673;28;87048;-49
2022/08/14 06:57:56;;;;;;;5.07;1.77;;;;;;;;;;5041927;27;87073;-49
2022/08/14 07:00:25;;;;;;;2.07;1.97;;;;;;;;;;5041733;28;88060;-50
2022/08/14 07:05:47;;;;;;;3.33;2.13;;;;;;;;;;5042355;28;86845;-50
2022/08/14 07:08:25;;;;;;;2.07;1.87;;;;;;;;;;5042135;28;87086;-50
2022/08/14 07:10:57;;;;;;;3.57;1.93;;;;;;;;;;5041003;28;88966;-50
2022/08/14 07:13:27;;;;;;;2.30;1.80;;;;;;;;;;5042038;28;88618;-50
2022/08/14 07:15:55;;;;;;;5.53;2.10;;;;;;;;;;5041782;28;87115;-49
2022/08/14 07:18:27;;;;;;;3.57;1.60;;;;;;;;;;5041997;28;86998;-50
2022/08/14 07:20:55;;;;;;;2.23;1.77;;;;;;;;;;5042240;28;88277;-50
2022/08/14 07:23:24;;;;;;;3.10;2.17;;;;;;;;;;5041634;28;86969;-49
2022/08/14 07:25:53;;;;;;;2.30;2.10;;;;;;;;;;5042174;28;87126;-50
2022/08/14 07:28:23;;;;;;;2.67;1.83;;;;;;;;;;5042290;28;86329;-49
2022/08/14 07:30:55;;;;;;;3.20;2.40;;;;;;;;;;5042063;28;89201;-50
2022/08/14 07:33:23;;;;;;;3.10;1.67;;;;;;;;;;5041157;28;86983;-50
2022/08/14 07:35:59;;;;;;;4.33;2.03;;;;;;;;;;5041525;28;87966;-49
2022/08/14 07:38:28;;;;;;;1.90;1.50;;;;;;;;;;5042199;28;86982;-50
2022/08/14 07:41:04;;;;;;;2.00;1.77;;;;;;;;;;5041551;28;89068;-50
2022/08/14 07:43:42;;;;;;;3.23;2.10;;;;;;;;;;5041707;28;87840;-49
2022/08/14 07:46:15;;;;;;;2.97;2.20;;;;;;;;;;5041715;28;86903;-49
2022/08/14 07:48:48;;;;;;;2.20;1.60;;;;;;;;;;5041199;28;87068;-50
2022/08/14 07:51:21;;;;;;;3.03;2.10;;;;;;;;;;5041430;28;87127;-56
2022/08/14 07:53:50;;;;;;;1.90;1.53;;;;;;;;;;5041664;28;87760;-49
2022/08/14 07:56:24;;;;;;;3.10;2.20;;;;;;;;;;5041941;28;87045;-49
2022/08/14 07:59:16;;;;;;;1.97;1.73;;;;;;;;;;5041119;28;86881;-49
2022/08/14 08:01:45;;;;;;;1.60;1.50;;;;;;;;;;5040821;28;89030;-50
2022/08/14 08:04:18;;;;;;;1.83;1.63;;;;;;;;;;5040958;28;89594;-50
2022/08/14 08:06:54;;;;;;;2.77;1.80;;;;;;;;;;5041028;28;87099;-50
2022/08/14 08:09:22;;;;;;;2.47;1.53;;;;;;;;;;5041812;28;86987;-50
2022/08/14 08:11:51;;;;;;;3.17;2.03;;;;;;;;;;5044677;28;88042;-50
2022/08/14 08:14:24;;;;;;;2.40;1.90;;;;;;;;;;5044892;28;87803;-49
2022/08/14 08:16:55;;;;;;;1.43;1.33;;;;;;;;;;5044877;28;87060;-50
2022/08/14 08:19:24;;;;;;;1.60;1.50;;;;;;;;;;5045076;28;86224;-50
2022/08/14 08:21:54;;;;;;;2.13;1.93;;;;;;;;;;5045213;28;89323;-50
2022/08/14 08:24:22;;;;;;;1.73;1.63;;;;;;;;;;5045094;28;87792;-50
2022/08/14 08:26:50;;;;;;;2.23;1.67;;;;;;;;;;5044232;28;87790;-49
2022/08/14 08:29:20;;;;;;;1.73;1.63;;;;;;;;;;5044692;28;86928;-49
2022/08/14 08:31:56;;;;;;;3.87;1.93;;;;;;;;;;5043947;28;88031;-49
2022/08/14 08:34:44;;;;;;;3.67;2.00;;;;;;;;;;5040720;28;87927;-49
2022/08/14 08:37:14;;;;;;;2.00;1.57;;;;;;;;;;5041367;27;86986;-50
2022/08/14 08:39:44;;;;;;;3.10;2.07;;;;;;;;;;5033709;28;87027;-50
2022/08/14 08:42:30;;;;;;;2.83;2.10;;;;;;;;;;5043110;28;88054;-50
2022/08/14 08:45:19;;;;;;;3.33;2.03;;;;;;;;;;5037364;28;87449;-49
2022/08/14 08:47:47;;;;;;;5.40;2.33;;;;;;;;;;5027074;28;86864;-49
2022/08/14 08:50:19;;;;;;;8.83;2.87;;;;;;;;;;5041330;28;87020;-50
2022/08/14 08:52:59;;;;;;;5.27;3.10;;;;;;;;;;5043234;28;87905;-49
2022/08/14 08:55:30;;;;;;;11.73;3.53;;;;;;;;;;5035462;28;89730;-49
2022/08/14 08:57:58;;;;;;;8.90;3.70;;;;;;;;;;5043820;28;87028;-50
2022/08/14 09:00:32;;;;;;;15.73;4.60;;;;;;;;;;5043496;28;86950;-50
2022/08/14 09:03:03;;;;;;;16.93;4.63;;;;;;;;;;5033832;28;88065;-50
2022/08/14 09:05:31;;;;;;;17.30;5.23;;;;;;;;;;5037895;28;87858;-49
2022/08/14 09:08:16;;;;;;;7.73;3.97;;;;;;;;;;5032095;28;87287;-50
2022/08/14 09:10:59;;;;;;;13.23;4.37;;;;;;;;;;5031494;28;87179;-49
2022/08/14 09:13:28;;;;;;;13.87;4.63;;;;;;;;;;5042229;28;87025;-50
2022/08/14 09:16:00;;;;;;;13.53;4.93;;;;;;;;;;5042091;28;87907;-49
2022/08/14 09:18:46;;;;;;;5.27;2.80;;;;;;;;;;5041933;28;87920;-50
2022/08/14 09:21:15;;;;;;;10.40;3.77;;;;;;;;;;5027429;28;87586;-50
2022/08/14 09:23:45;;;;;;;5.67;3.50;;;;;;;;;;5029765;28;89508;-49
2022/08/14 09:26:33;;;;;;;7.13;3.27;;;;;;;;;;5031496;28;87402;-50
2022/08/14 09:29:02;;;;;;;7.93;3.27;;;;;;;;;;5033549;28;86828;-49
2022/08/14 09:31:31;;;;;;;5.70;2.30;;;;;;;;;;5035003;28;87205;-50
2022/08/14 09:34:21;;;;;;;4.50;3.27;;;;;;;;;;5023485;28;87790;-49
2022/08/14 09:37:08;;;;;;;8.33;3.13;;;;;;;;;;5041665;28;88960;-50
2022/08/14 09:39:44;;;;;;;5.23;2.70;;;;;;;;;;5043727;28;87035;-49
2022/08/14 09:42:19;;;;;;;3.17;2.00;;;;;;;;;;5044016;28;87103;-50
2022/08/14 09:45:10;;;;;;;3.87;2.33;;;;;;;;;;5042835;28;88660;-49
2022/08/14 09:47:43;;;;;;;4.73;2.53;;;;;;;;;;5043874;28;87798;-50
2022/08/14 09:50:21;;;;;;;3.90;2.30;;;;;;;;;;5043104;28;87087;-49
2022/08/14 09:52:54;;;;;;;2.70;1.90;;;;;;;;;;5042957;28;87153;-50
2022/08/14 09:55:26;;;;;;;4.63;2.43;;;;;;;;;;5043169;28;88022;-50
2022/08/14 09:58:04;;;;;;;2.90;2.10;;;;;;;;;;5042863;28;87694;-49
2022/08/14 10:00:39;;;;;;;2.80;1.70;;;;;;;;;;5043206;28;86885;-49
2022/08/14 10:03:08;;;;;;;2.27;2.00;;;;;;;;;;5041979;28;86408;-50
2022/08/14 10:05:38;;;;;;;2.97;1.63;;;;;;;;;;5041274;28;87496;-49
2022/08/14 10:08:16;;;;;;;2.27;1.97;;;;;;;;;;5042519;28;88895;-50
2022/08/14 10:10:55;;;;;;;4.53;1.63;;;;;;;;;;5042844;28;88142;-50
2022/08/14 10:13:30;;;;;;;2.37;1.83;;;;;;;;;;5042374;28;87064;-50
2022/08/14 10:16:18;;;;;;;2.73;1.63;;;;;;;;;;5040345;28;87693;-50
2022/08/14 10:19:07;;;;;;;1.33;1.23;;;;;;;;;;5034630;28;88833;-49
2022/08/14 10:21:37;;;;;;;1.70;1.60;;;;;;;;;;5031788;28;87553;-50
2022/08/14 10:24:23;;;;;;;1.60;1.50;;;;;;;;;;5029408;28;86730;-49
2022/08/14 10:27:05;;;;;;;1.50;1.20;;;;;;;;;;5029103;28;88808;-49
2022/08/14 10:29:34;;;;;;;2.30;1.37;;;;;;;;;;5032181;28;87706;-49
2022/08/14 10:32:03;;;;;;;1.47;1.33;;;;;;;;;;5032156;28;87037;-50
2022/08/14 10:34:45;;;;;;;1.43;1.27;;;;;;;;;;5029599;28;87162;-50
2022/08/14 10:37:20;;;;;;;2.07;1.50;;;;;;;;;;5028647;28;89264;-50
2022/08/14 10:39:58;;;;;;;2.17;1.40;;;;;;;;;;5032455;28;88682;-49
2022/08/14 10:42:39;;;;;;;1.43;1.27;;;;;;;;;;5032964;28;87034;-49
2022/08/14 10:45:19;;;;;;;3.27;1.70;;;;;;;;;;5031087;28;88167;-49
2022/08/14 10:47:48;;;;;;;1.33;1.23;;;;;;;;;;5036270;28;88049;-49
2022/08/14 10:50:38;;;;;;;2.57;1.73;;;;;;;;;;5029641;28;87240;-49
2022/08/14 10:53:06;;;;;;;1.30;1.10;;;;;;;;;;5035966;28;87001;-49
2022/08/14 10:55:38;;;;;;;4.40;1.67;;;;;;;;;;5034018;28;87660;-49
2022/08/14 10:58:14;;;;;;;1.50;1.40;;;;;;;;;;5039162;28;88986;-49
2022/08/14 11:00:56;;;;;;;2.10;1.37;;;;;;;;;;5042530;28;87719;-50
2022/08/14 11:03:25;;;;;;;1.53;1.43;;;;;;;;;;5042159;28;87941;-49
2022/08/14 11:06:17;;;;;;;1.40;1.30;;;;;;;;;;5042162;28;87139;-50
2022/08/14 11:08:46;;;;;;;1.50;1.27;;;;;;;;;;5042306;28;86986;-50
2022/08/14 11:11:17;;;;;;;1.70;1.50;;;;;;;;;;5041771;28;87167;-49
2022/08/14 11:13:49;;;;;;;1.30;1.20;;;;;;;;;;5040750;28;87100;-50
2022/08/14 11:16:18;;;;;;;1.10;0.93;;;;;;;;;;5041356;28;87073;-49
2022/08/14 11:18:47;;;;;;;2.73;1.40;;;;;;;;;;5041894;28;89143;-50
2022/08/14 11:21:21;;;;;;;1.17;1.17;;;;;;;;;;5041828;28;87873;-50
2022/08/14 11:23:50;;;;;;;2.07;1.50;;;;;;;;;;5041327;28;87114;-51
2022/08/14 11:26:24;;;;;;;2.00;1.40;;;;;;;;;;5042374;28;87064;-50
2022/08/14 11:28:55;;;;;;;1.80;1.47;;;;;;;;;;5041193;28;87960;-50
2022/08/14 11:31:30;;;;;;;1.90;1.60;;;;;;;;;;5041379;28;87514;-51
2022/08/14 11:34:06;;;;;;;1.40;1.20;;;;;;;;;;5041734;28;87181;-52
2022/08/14 11:36:55;;;;;;;1.70;1.27;;;;;;;;;;5023373;28;86963;-50
2022/08/14 11:39:43;;;;;;;1.50;1.40;;;;;;;;;;5029235;28;87735;-50
2022/08/14 11:42:19;;;;;;;2.30;1.43;;;;;;;;;;5041140;28;87775;-50
2022/08/14 11:45:10;;;;;;;2.37;1.60;;;;;;;;;;5024056;28;87015;-50
2022/08/14 11:47:46;;;;;;;2.00;1.60;;;;;;;;;;5021549;28;86445;-50
2022/08/14 11:50:34;;;;;;;1.50;1.40;;;;;;;;;;5036790;28;88819;-50
2022/08/14 11:53:05;;;;;;;1.90;1.37;;;;;;;;;;5022151;28;87030;-50
2022/08/14 11:55:35;;;;;;;2.73;1.70;;;;;;;;;;5020053;28;87712;-50
2022/08/14 11:58:07;;;;;;;1.60;1.50;;;;;;;;;;5020545;28;87041;-51
2022/08/14 12:00:47;;;;;;;1.57;1.47;;;;;;;;;;5020604;28;89286;-55
2022/08/14 12:03:16;;;;;;;1.43;1.30;;;;;;;;;;5020898;28;87926;-52
2022/08/14 12:06:05;;;;;;;5.73;1.63;;;;;;;;;;5020020;28;87010;-49
2022/08/14 12:08:49;;;;;;;1.57;1.43;;;;;;;;;;5020893;28;86820;-50
2022/08/14 12:11:20;;;;;;;1.47;1.30;;;;;;;;;;5020809;28;89126;-49
2022/08/14 12:13:48;;;;;;;2.13;1.50;;;;;;;;;;5020446;28;88799;-50
2022/08/14 12:16:24;;;;;;;1.50;1.40;;;;;;;;;;5021498;28;87641;-48
2022/08/14 12:18:53;;;;;;;1.23;1.10;;;;;;;;;;5040766;28;87025;-49
2022/08/14 12:21:22;;;;;;;1.90;1.40;;;;;;;;;;5032368;28;88938;-49
2022/08/14 12:24:01;;;;;;;3.93;1.20;;;;;;;;;;5035095;28;89885;-49
2022/08/14 12:26:29;;;;;;;2.07;1.00;;;;;;;;;;5037735;28;86988;-50
2022/08/14 12:29:07;;;;;;;1.10;1.00;;;;;;;;;;5027592;28;87341;-50
2022/08/14 12:31:37;;;;;;;1.10;1.00;;;;;;;;;;5028983;28;88179;-49
2022/08/14 12:34:14;;;;;;;1.20;1.10;;;;;;;;;;5037679;28;88590;-49
2022/08/14 12:36:50;;;;;;;1.47;1.27;;;;;;;;;;5039433;28;87222;-49
2022/08/14 12:39:18;;;;;;;1.63;1.00;;;;;;;;;;5041431;28;86391;-49
2022/08/14 12:41:51;;;;;;;1.10;1.00;;;;;;;;;;5039424;28;87822;-48
2022/08/14 12:44:29;;;;;;;0.97;0.87;;;;;;;;;;5040095;28;87757;-54
2022/08/14 12:47:04;;;;;;;1.50;1.10;;;;;;;;;;5039988;28;87964;-55
2022/08/14 12:49:33;;;;;;;1.00;0.90;;;;;;;;;;5035063;28;87114;-54
2022/08/14 12:52:02;;;;;;;1.33;1.20;;;;;;;;;;5030264;28;88103;-55
2022/08/14 12:54:30;;;;;;;0.87;0.80;;;;;;;;;;5029531;28;88872;-55
2022/08/14 12:57:03;;;;;;;1.70;1.60;;;;;;;;;;5023020;28;87017;-51
2022/08/14 12:59:33;;;;;;;1.10;1.00;;;;;;;;;;5028392;28;86954;-50
2022/08/14 13:02:20;;;;;;;1.07;1.00;;;;;;;;;;5043278;28;88180;-49
2022/08/14 13:04:54;;;;;;;2.10;1.30;;;;;;;;;;5044279;28;87677;-49
2022/08/14 13:07:23;;;;;;;2.13;1.20;;;;;;;;;;5044089;28;87074;-50
2022/08/14 13:09:54;;;;;;;1.20;1.10;;;;;;;;;;5042023;28;87092;-50
2022/08/14 13:12:26;;;;;;;2.10;1.27;;;;;;;;;;5042549;28;89008;-50
2022/08/14 13:15:02;;;;;;;1.23;0.97;;;;;;;;;;5002594;28;88644;-50
2022/08/14 13:17:39;;;;;;;1.07;0.90;;;;;;;;;;5004315;28;86999;-49
2022/08/14 13:20:09;;;;;;;1.20;1.10;;;;;;;;;;5002529;28;87596;-49
2022/08/14 13:22:52;;;;;;;2.17;1.20;;;;;;;;;;5002083;28;88252;-49
2022/08/14 13:25:20;;;;;;;1.27;1.17;;;;;;;;;;5001731;28;87965;-54
2022/08/14 13:27:50;;;;;;;1.20;1.10;;;33.50;31.50;;;;;;5003329;28;86939;-54
2022/08/14 13:30:23;;;;;;;2.23;1.67;;;33.50;32.10;;;;;;5003603;28;86340;-55
2022/08/14 13:32:53;;;;;;;2.47;1.23;;;33.40;32.10;;;;;;5001712;28;87112;-55
2022/08/14 13:35:25;;;;;;;1.40;1.30;;;33.50;32.10;;;;;;5001794;28;87975;-55
2022/08/14 13:37:53;;;;;;;1.50;1.20;;;33.50;32.10;;;;;;5002001;28;88008;-55
2022/08/14 13:40:23;;;;;;;1.23;1.17;;;33.50;32.10;;;;;;5003790;28;86905;-55
2022/08/14 13:42:54;;;;;;;1.37;1.27;;;33.50;32.00;;;;;;5003257;28;87052;-54
2022/08/14 13:45:24;;;;;;;2.20;1.37;;;33.60;32.00;;;;;;5002850;28;87949;-55
2022/08/14 13:48:14;;;;;;;3.20;1.40;;;33.70;32.00;;;;;;5003225;28;87014;-55
2022/08/14 13:50:59;;;;;;;1.30;1.20;;;33.70;32.00;;;;;;5003476;28;87081;-54
2022/08/14 13:53:28;;;;;;;1.20;1.10;;;33.70;32.10;;;;;;5003407;28;88013;-54
2022/08/14 13:56:00;;;;;;;1.80;1.50;;;33.70;32.10;;;;;;5003415;28;86373;-55
2022/08/14 13:58:29;;;;;;;1.17;1.07;;;33.70;32.10;;;;;;5003340;28;87021;-55
2022/08/14 14:01:02;;;;;;;3.80;1.83;;;33.70;32.20;;;;;;5003152;28;86761;-55
2022/08/14 14:03:36;;;;;;;4.07;1.40;;;33.70;32.20;;;;;;5002604;28;90127;-54
2022/08/14 14:06:04;;;;;;;1.83;1.20;;;33.70;32.20;;;;;;5002812;28;88656;-54
2022/08/14 14:08:36;;;;;;;1.90;1.70;;;33.70;32.20;;;;;;5002665;28;87059;-55
2022/08/14 14:11:14;;;;;;;1.70;1.50;;;33.70;32.30;;;;;;5003270;28;87014;-55
2022/08/14 14:13:43;;;;;;;3.00;1.50;;;33.70;32.20;;;;;;5024122;28;88109;-54
2022/08/14 14:16:13;;;;;;;1.70;1.60;;;33.80;32.30;;;;;;5042437;28;87735;-55
2022/08/14 14:18:56;;;;;;;1.67;1.57;;;33.80;32.30;;;;;;5039469;28;87010;-54
2022/08/14 14:21:26;;;;;;;1.50;1.40;;;33.80;32.30;;;;;;5022886;28;86631;-55
2022/08/14 14:23:55;;;;;;;2.77;1.53;;;33.80;32.20;;;;;;5022762;28;88045;-55
2022/08/14 14:26:24;;;;;;;1.40;1.30;;;33.80;32.20;;;;;;5022741;28;88844;-54
2022/08/14 14:28:55;;;;;;;2.27;1.33;;;33.80;32.10;;;;;;5022800;28;88106;-55
2022/08/14 14:31:24;;;;;;;1.40;1.30;;;33.80;31.60;;;;;;5022873;28;87070;-54
2022/08/14 14:34:01;;;;;;;1.47;1.37;;;33.90;32.20;;;;;;5025471;27;88282;-55
2022/08/14 14:36:49;;;;;;;1.73;1.23;;;33.90;32.20;;;;;;5056764;27;87298;-55
2022/08/14 14:39:20;;;;;;;1.40;1.10;;;33.90;32.20;;;;;;5059639;27;86980;-55
2022/08/14 14:41:51;;;;;;;1.63;1.53;;;33.90;32.20;;;;;;5063033;27;87010;-55
2022/08/14 14:44:24;;;;;;;3.40;1.60;;;33.90;32.20;;;;;;5060929;27;88167;-55
2022/08/14 14:46:53;;;;;;;2.90;1.50;;;33.90;32.20;;;;;;5042520;28;87693;-55
2022/08/14 14:49:26;;;;;;;1.47;1.27;;;34.00;32.10;;;;;;5042197;28;87007;-55
2022/08/14 14:52:14;;;;;;;1.53;1.43;;;34.00;32.10;;;;;;5042298;28;86977;-55
2022/08/14 14:54:55;;;;;;;1.97;1.30;;;34.00;32.10;;;;;;5041798;28;90046;-54
2022/08/14 14:57:23;;;;;;;2.13;1.30;;;34.00;32.10;;;;;;5042087;28;89250;-55
2022/08/14 15:00:01;;;;;;;4.73;1.60;;;34.00;32.10;;;;;;5042691;28;86769;-55
2022/08/14 15:02:34;;;;;;;1.87;1.37;;;34.00;32.10;;;;;;5042470;28;86947;-57
2022/08/14 15:05:06;;;;;;;1.77;1.40;;;34.00;32.00;;;;;;5041443;28;87168;-55
2022/08/14 15:07:35;;;;;;;1.63;1.27;;;34.00;32.00;;;;;;5039833;28;87805;-55
2022/08/14 15:10:06;;;;;;;1.67;1.30;;;34.00;31.40;;;;;;5041746;28;86993;-55
2022/08/14 15:12:54;;;;;;;1.60;1.50;;;33.90;31.90;;;;;;5040593;28;88407;-54
2022/08/14 15:15:30;;;;;;;1.33;1.23;;;33.90;32.00;;;;;;5032756;28;89077;-55
2022/08/14 15:18:00;;;;;;;3.03;1.60;;;33.90;32.00;;;;;;5040948;28;88925;-54
2022/08/14 15:20:29;;;;;;;4.63;1.50;;;33.90;32.00;;;;;;5040014;28;87929;-55
2022/08/14 15:22:59;;;;;;;1.60;1.50;;;33.90;32.00;;;;;;5040803;28;87009;-55
2022/08/14 15:25:38;;;;;;;4.13;1.50;;;33.90;32.20;;;;;;5041455;28;88063;-55